Terminal Aerodrome Forecast
Issued by NWS North Platte, NE

Home | Current Version | Previous Version | Text Only | Print | Product List | Glossary On
Versions: 1 2 3 4 5 6 7 8 9 10 11 12 13 14 15 16 17 18
000
FTUS43 KLBF 292328
TAFVTN
TAF
KVTN 292328Z 3000/3024 06019KT P6SM BKN120
     FM300300 06011KT P6SM OVC120
     FM301100 03008KT P6SM OVC120
     FM301400 01016G26KT P6SM OVC120
     FM301800 01022G34KT P6SM -RA OVC060=

USA.gov is the U.S. government's official web portal to all federal, state and local government web resources and services.